Time;durP1;ratioP1;P1;durP2;ratioP2;P2;SDS_P1;SDS_P2;PMS_P1;PMS_P2;Temp;Humidity;BMP_temperature;BMP_pressure;BME280_temperature;BME280_humidity;BME280_pressure;Samples;Min_cycle;Max_cycle;Signal;HPM_P1;HPM_P2
2021/10/25 00:00:27;;;;;;;;;;;;;;;6.42;82.09;97445.06;30001;983;1871;-66
2021/10/25 00:00:59;;;;;;;;;;;;;;;6.40;82.06;97453.38;30001;983;1876;-67
2021/10/25 00:01:31;;;;;;;;;;;;;;;6.40;81.92;97448.00;30001;983;1881;-67
2021/10/25 00:02:02;;;;;;;;;;;;;;;6.39;82.24;97447.19;30001;983;1876;-66
2021/10/25 00:02:33;;;;;;;;;;;;;;;6.40;82.17;97448.00;30001;983;1867;-67
2021/10/25 00:03:04;;;;;;;;;;;;;;;6.39;82.06;97446.38;30001;983;1867;-66
2021/10/25 00:03:35;;;;;;;;;;;;;;;6.40;81.93;97453.38;30001;982;1881;-68
2021/10/25 00:04:05;;;;;;;;;;;;;;;6.39;82.07;97446.38;30001;982;1787;-66
2021/10/25 00:04:36;;;;;;;;;;;;;;;6.40;81.96;97448.00;30001;967;1905;-66
2021/10/25 00:05:07;;;;;;;;;;;;;;;6.39;81.88;97446.38;30001;982;1753;-67
2021/10/25 00:05:38;;;;;;;;;;;;;;;6.39;81.92;97441.78;30001;982;1872;-68
2021/10/25 00:06:09;;;;;;;;;;;;;;;6.39;81.86;97444.50;30001;983;1876;-67
2021/10/25 00:06:40;;;;;;;;;;;;;;;6.40;81.78;97442.59;30001;983;1880;-66
2021/10/25 00:07:11;;;;;;;;;;;;;;;6.43;81.68;97449.38;30001;983;1876;-68
2021/10/25 00:07:41;;;;;;;;;;;;;;;6.42;81.50;97445.88;30001;983;1880;-67
2021/10/25 00:08:13;;;;;;;;;;;;;;;6.42;81.58;97445.06;30001;983;1876;-66
2021/10/25 00:08:44;;;;;;;;;;;;;;;6.42;81.54;97440.47;30001;983;1867;-66
2021/10/25 00:09:14;;;;;;;;;;;;;;;6.41;81.61;97444.25;30001;983;1868;-66
2021/10/25 00:09:45;;;;;;;;;;;;;;;6.41;81.33;97449.63;30001;983;1880;-66
2021/10/25 00:10:16;;;;;;;;;;;;;;;6.41;81.64;97444.25;30001;983;1876;-66
2021/10/25 00:10:47;;;;;;;;;;;;;;;6.41;81.40;97438.84;30001;983;1880;-67
2021/10/25 00:11:18;;;;;;;;;;;;;;;6.41;81.61;97443.44;30001;982;1876;-67
2021/10/25 00:11:49;;;;;;;;;;;;;;;6.43;81.43;97444.00;30001;982;1881;-66
2021/10/25 00:12:20;;;;;;;;;;;;;;;6.43;81.78;97442.09;30001;982;1876;-67
2021/10/25 00:12:51;;;;;;;;;;;;;;;6.44;81.36;97438.34;30001;982;1881;-68
2021/10/25 00:13:22;;;;;;;;;;;;;;;6.45;81.65;97447.25;30001;983;1876;-67
2021/10/25 00:13:53;;;;;;;;;;;;;;;6.46;81.44;97438.91;30001;983;1867;-66
2021/10/25 00:14:24;;;;;;;;;;;;;;;6.45;81.36;97439.97;30001;983;1867;-56
2021/10/25 00:14:55;;;;;;;;;;;;;;;6.47;81.19;97445.13;30001;983;1880;-66
2021/10/25 00:15:26;;;;;;;;;;;;;;;6.46;81.40;97438.09;30001;983;1876;-65
2021/10/25 00:15:57;;;;;;;;;;;;;;;6.46;81.38;97441.59;30001;983;1880;-67
2021/10/25 00:16:28;;;;;;;;;;;;;;;6.45;81.12;97445.38;30001;983;1876;-66
2021/10/25 00:16:59;;;;;;;;;;;;;;;6.45;81.22;97439.97;30001;983;1881;-65
2021/10/25 00:17:29;;;;;;;;;;;;;;;6.45;81.39;97439.16;30001;983;1876;-66
2021/10/25 00:18:00;;;;;;;;;;;;;;;6.44;81.28;97443.75;30001;983;1881;-68
2021/10/25 00:18:31;;;;;;;;;;;;;;;6.43;81.51;97439.41;30001;982;1876;-66
2021/10/25 00:19:02;;;;;;;;;;;;;;;6.43;81.26;97444.81;30001;982;1868;-67
2021/10/25 00:19:33;;;;;;;;;;;;;;;6.42;81.42;97443.19;30001;982;1868;-67
2021/10/25 00:20:05;;;;;;;;;;;;;;;6.43;81.21;97447.50;30001;982;1881;-66
2021/10/25 00:20:36;;;;;;;;;;;;;;;6.42;81.52;97447.75;30001;982;1877;-67
2021/10/25 00:21:07;;;;;;;;;;;;;;;6.41;81.36;97449.63;30001;983;1880;-66
2021/10/25 00:21:38;;;;;;;;;;;;;;;6.39;81.57;97444.50;30001;986;1867;-67
2021/10/25 00:22:08;;;;;;;;;;;;;;;6.39;81.40;97446.38;30001;983;1880;-61
2021/10/25 00:22:40;;;;;;;;;;;;;;;6.40;81.25;97448.00;30001;983;1876;-65
2021/10/25 00:23:11;;;;;;;;;;;;;;;6.41;81.28;97448.81;30001;983;1880;-67
2021/10/25 00:23:42;;;;;;;;;;;;;;;6.41;81.58;97438.03;30001;983;1876;-63
2021/10/25 00:24:14;;;;;;;;;;;;;;;6.41;81.48;97449.63;30001;983;1867;-67
2021/10/25 00:24:45;;;;;;;;;;;;;;;6.41;81.44;97441.53;30001;983;1867;-66
2021/10/25 00:25:15;;;;;;;;;;;;;;;6.42;81.18;97448.56;30001;982;1881;-67
2021/10/25 00:25:46;;;;;;;;;;;;;;;6.42;81.45;97445.88;30001;982;1876;-69
2021/10/25 00:26:17;;;;;;;;;;;;;;;6.42;81.48;97445.06;30001;982;1867;-68
2021/10/25 00:26:48;;;;;;;;;;;;;;;6.43;81.21;97442.09;30001;982;1868;-67
2021/10/25 00:27:19;;;;;;;;;;;;;;;6.45;81.20;97447.25;30001;982;1881;-67
2021/10/25 00:27:50;;;;;;;;;;;;;;;6.45;81.20;97445.38;30001;982;1877;-67
2021/10/25 00:28:21;;;;;;;;;;;;;;;6.46;81.24;97444.31;30001;982;1868;-63
2021/10/25 00:28:51;;;;;;;;;;;;;;;6.45;81.20;97444.56;30001;983;1867;-66
2021/10/25 00:29:22;;;;;;;;;;;;;;;6.46;81.28;97441.59;30001;969;1888;-66
2021/10/25 00:29:53;;;;;;;;;;;;;;;6.45;81.20;97441.84;30001;983;1867;-66
2021/10/25 00:30:24;;;;;;;;;;;;;;;6.46;80.95;97446.19;30001;983;1880;-63
2021/10/25 00:30:55;;;;;;;;;;;;;;;6.47;81.16;97447.81;30001;983;1876;-68
2021/10/25 00:31:25;;;;;;;;;;;;;;;6.48;80.93;97449.44;30001;983;1880;-66
2021/10/25 00:31:56;;;;;;;;;;;;;;;6.48;80.85;97444.06;30001;983;1876;-64
2021/10/25 00:32:27;;;;;;;;;;;;;;;6.49;80.66;97451.06;30001;983;1881;-61
2021/10/25 00:32:58;;;;;;;;;;;;;;;6.49;80.83;97445.69;30001;982;1876;-66
2021/10/25 00:33:29;;;;;;;;;;;;;;;6.50;80.44;97439.22;30001;982;1881;-65
2021/10/25 00:34:00;;;;;;;;;;;;;;;6.50;80.53;97439.22;30001;982;1876;-66
2021/10/25 00:34:31;;;;;;;;;;;;;;;6.51;80.36;97449.75;30001;982;1868;-65
2021/10/25 00:35:02;;;;;;;;;;;;;;;6.51;80.51;97451.62;30001;982;1868;-62
2021/10/25 00:35:33;;;;;;;;;;;;;;;6.52;80.26;97445.19;30001;982;1881;-66
2021/10/25 00:36:03;;;;;;;;;;;;;;;6.53;80.66;97444.94;30001;983;1863;-64
2021/10/25 00:36:34;;;;;;;;;;;;;;;6.53;80.39;97444.94;30001;983;1871;-65
2021/10/25 00:37:05;;;;;;;;;;;;;;;6.55;80.47;97450.88;30001;983;1876;-66
2021/10/25 00:37:37;;;;;;;;;;;;;;;6.56;80.00;97449.00;30001;983;1880;-65
2021/10/25 00:38:08;;;;;;;;;;;;;;;6.55;80.36;97445.50;30001;983;1876;-66
2021/10/25 00:38:39;;;;;;;;;;;;;;;6.57;79.96;97450.63;30001;983;1880;-67
2021/10/25 00:39:10;;;;;;;;;;;;;;;6.57;80.18;97451.44;30001;983;1876;-66
2021/10/25 00:39:40;;;;;;;;;;;;;;;6.58;79.76;97446.88;30001;983;1880;-65
2021/10/25 00:40:11;;;;;;;;;;;;;;;6.56;80.12;97449.81;30001;983;1876;-65
2021/10/25 00:40:42;;;;;;;;;;;;;;;6.56;80.25;97452.50;30001;982;1868;-66
2021/10/25 00:41:14;;;;;;;;;;;;;;;6.55;80.19;97450.06;30001;982;1868;-68
2021/10/25 00:41:44;;;;;;;;;;;;;;;6.55;80.04;97450.06;30001;982;1881;-67
2021/10/25 00:42:15;;;;;;;;;;;;;;;6.54;80.18;97449.25;30001;982;1877;-65
2021/10/25 00:42:46;;;;;;;;;;;;;;;6.54;79.96;97446.56;30001;982;1868;-65
2021/10/25 00:43:17;;;;;;;;;;;;;;;6.51;80.11;97449.75;30001;982;1868;-65
2021/10/25 00:43:48;;;;;;;;;;;;;;;6.53;80.03;97453.00;30001;983;1880;-65
2021/10/25 00:44:20;;;;;;;;;;;;;;;6.52;80.08;97446.00;30001;983;1876;-65
2021/10/25 00:44:51;;;;;;;;;;;;;;;6.51;80.12;97443.53;30001;983;1880;-66
2021/10/25 00:45:21;;;;;;;;;;;;;;;6.50;80.54;97448.13;30001;983;1876;-66
2021/10/25 00:45:52;;;;;;;;;;;;;;;6.50;80.56;97455.41;30001;983;1880;-66
2021/10/25 00:46:23;;;;;;;;;;;;;;;6.48;80.30;97442.16;30001;983;1863;-65
2021/10/25 00:46:54;;;;;;;;;;;;;;;6.47;80.32;97448.63;30001;983;1872;-67
2021/10/25 00:47:25;;;;;;;;;;;;;;;6.47;80.25;97443.22;30001;983;1876;-66
2021/10/25 00:47:57;;;;;;;;;;;;;;;6.43;80.29;97439.41;30001;982;1881;-65
2021/10/25 00:48:28;;;;;;;;;;;;;;;6.42;80.54;97448.56;30001;982;1876;-66
2021/10/25 00:48:59;;;;;;;;;;;;;;;6.43;80.38;97444.00;30001;982;1868;-67
2021/10/25 00:49:30;;;;;;;;;;;;;;;6.41;80.58;97449.63;30001;982;1868;-67
2021/10/25 00:50:01;;;;;;;;;;;;;;;6.41;80.54;97443.44;30001;982;1881;-64
2021/10/25 00:50:32;;;;;;;;;;;;;;;6.40;80.48;97445.31;30001;982;1877;-65
2021/10/25 00:51:03;;;;;;;;;;;;;;;6.39;80.52;97440.97;30001;982;1881;-66
2021/10/25 00:51:35;;;;;;;;;;;;;;;6.37;80.64;97448.50;30001;983;1876;-63
2021/10/25 00:52:06;;;;;;;;;;;;;;;6.36;80.69;97445.00;30001;983;1867;-66
2021/10/25 00:52:38;;;;;;;;;;;;;;;6.36;80.72;97445.00;30001;983;1867;-65
2021/10/25 00:53:09;;;;;;;;;;;;;;;6.35;80.52;97443.38;30001;983;1880;-65
2021/10/25 00:53:41;;;;;;;;;;;;;;;6.33;80.42;97442.81;30001;983;1876;-66
2021/10/25 00:54:12;;;;;;;;;;;;;;;6.35;80.61;97450.63;30001;983;1881;-64
2021/10/25 00:54:43;;;;;;;;;;;;;;;6.34;80.49;97446.31;30001;983;1876;-67
2021/10/25 00:55:14;;;;;;;;;;;;;;;6.33;80.36;97441.97;30001;983;1881;-63
2021/10/25 00:55:45;;;;;;;;;;;;;;;6.32;80.65;97451.94;30001;982;1877;-68
2021/10/25 00:56:16;;;;;;;;;;;;;;;6.32;80.71;97449.25;30001;982;1868;-66
2021/10/25 00:56:48;;;;;;;;;;;;;;;6.33;80.69;97447.37;30001;982;1868;-66
2021/10/25 00:57:18;;;;;;;;;;;;;;;6.32;80.49;97446.56;30001;982;1881;-64
2021/10/25 00:57:50;;;;;;;;;;;;;;;6.30;80.50;97448.69;30001;983;1863;-64
2021/10/25 00:58:21;;;;;;;;;;;;;;;6.29;80.85;97447.06;30001;983;1872;-62
2021/10/25 00:58:52;;;;;;;;;;;;;;;6.28;80.69;97447.31;30001;983;1876;-62
2021/10/25 00:59:22;;;;;;;;;;;;;;;6.25;81.04;97445.94;30001;983;1880;-68
2021/10/25 00:59:53;;;;;;;;;;;;;;;6.24;81.14;97443.47;30001;983;1876;-65
2021/10/25 01:00:24;;;;;;;;;;;;;;;6.24;80.82;97449.69;30001;983;1880;-65
2021/10/25 01:00:55;;;;;;;;;;;;;;;6.23;80.99;97444.59;30001;983;1876;-65
2021/10/25 01:01:25;;;;;;;;;;;;;;;6.24;80.88;97448.88;30001;983;1880;-64
2021/10/25 01:01:56;;;;;;;;;;;;;;;6.22;80.98;97451.03;30001;983;1876;-64
2021/10/25 01:02:27;;;;;;;;;;;;;;;6.23;80.98;97442.69;30001;983;1867;-65
2021/10/25 01:02:58;;;;;;;;;;;;;;;6.23;80.80;97441.88;30001;982;1868;-62
2021/10/25 01:03:29;;;;;;;;;;;;;;;6.24;80.71;97447.00;30001;982;1881;-63
2021/10/25 01:04:02;;;;;;;;;;;;;;;6.24;80.88;97448.88;30001;982;1876;-65
2021/10/25 01:04:32;;;;;;;;;;;;;;;6.24;80.89;97451.56;30001;982;1881;-63
2021/10/25 01:05:04;;;;;;;;;;;;;;;6.24;80.94;97448.88;30001;982;1877;-64
2021/10/25 01:05:35;;;;;;;;;;;;;;;6.25;80.77;97455.91;30001;983;1880;-65
2021/10/25 01:06:07;;;;;;;;;;;;;;;6.24;80.80;97443.47;30001;983;1876;-66
2021/10/25 01:06:38;;;;;;;;;;;;;;;6.23;80.89;97441.88;30001;983;1880;-56
2021/10/25 01:07:09;;;;;;;;;;;;;;;6.22;81.03;97446.47;30001;983;1863;-65
2021/10/25 01:07:40;;;;;;;;;;;;;;;6.22;80.98;97453.72;30001;983;1871;-65
2021/10/25 01:08:11;;;;;;;;;;;;;;;6.21;80.94;97455.63;30001;983;1876;-66
2021/10/25 01:08:43;;;;;;;;;;;;;;;6.21;80.92;97449.41;30001;983;1881;-65
2021/10/25 01:09:16;;;;;;;;;;;;;;;6.24;80.86;97448.88;30001;983;1876;-57
2021/10/25 01:09:47;;;;;;;;;;;;;;;6.24;80.77;97451.56;30001;983;1881;-67
2021/10/25 01:10:18;;;;;;;;;;;;;;;6.23;81.03;97447.28;30001;983;1877;-67
2021/10/25 01:10:49;;;;;;;;;;;;;;;6.24;80.57;97448.88;30001;982;1881;-66
2021/10/25 01:11:21;;;;;;;;;;;;;;;6.28;80.55;97444.62;30001;982;1876;-67
2021/10/25 01:11:53;;;;;;;;;;;;;;;6.30;80.21;97442.47;30001;982;1881;-67
2021/10/25 01:12:25;;;;;;;;;;;;;;;6.30;80.19;97443.31;30001;982;1863;-65
2021/10/25 01:12:57;;;;;;;;;;;;;;;6.30;80.34;97445.19;30001;983;1871;-64
2021/10/25 01:13:28;;;;;;;;;;;;;;;6.30;80.40;97447.87;30001;983;1876;-65
2021/10/25 01:13:59;;;;;;;;;;;;;;;6.30;80.40;97447.87;30001;983;1880;-63
2021/10/25 01:14:30;;;;;;;;;;;;;;;6.32;80.21;97451.12;30001;983;1863;-57
2021/10/25 01:15:00;;;;;;;;;;;;;;;6.32;80.08;97446.56;30001;983;1872;-66
2021/10/25 01:15:32;;;;;;;;;;;;;;;6.32;80.34;97448.44;30001;983;1863;-65
2021/10/25 01:16:04;;;;;;;;;;;;;;;6.32;80.22;97448.44;30001;983;1871;-64
2021/10/25 01:16:35;;;;;;;;;;;;;;;6.33;80.41;97441.97;30001;983;1876;-62
2021/10/25 01:17:06;;;;;;;;;;;;;;;6.33;80.03;97442.81;30001;983;1880;-63
2021/10/25 01:17:37;;;;;;;;;;;;;;;6.34;80.29;97446.31;30001;983;1876;-67
2021/10/25 01:18:08;;;;;;;;;;;;;;;6.33;80.08;97436.59;30001;982;1881;-64
2021/10/25 01:18:39;;;;;;;;;;;;;;;6.33;80.06;97436.59;30001;982;1876;-63
2021/10/25 01:19:11;;;;;;;;;;;;;;;6.33;80.25;97439.28;30001;982;1868;-66
2021/10/25 01:19:41;;;;;;;;;;;;;;;6.33;80.33;97439.28;30001;982;1868;-66
2021/10/25 01:20:12;;;;;;;;;;;;;;;6.34;80.02;97438.22;30001;982;1881;-66
2021/10/25 01:20:43;;;;;;;;;;;;;;;6.33;80.27;97425.81;30001;983;1876;-63
2021/10/25 01:21:14;;;;;;;;;;;;;;;6.34;79.95;97438.22;30001;983;1880;-67
2021/10/25 01:21:45;;;;;;;;;;;;;;;6.35;79.92;97432.59;30001;983;1876;-65
2021/10/25 01:22:18;;;;;;;;;;;;;;;6.37;79.95;97426.94;30001;983;1880;-65
2021/10/25 01:22:49;;;;;;;;;;;;;;;6.37;80.07;97427.75;30001;983;1876;-67
2021/10/25 01:23:20;;;;;;;;;;;;;;;6.37;79.73;97433.16;30001;983;1880;-65
2021/10/25 01:23:52;;;;;;;;;;;;;;;6.38;79.99;97429.38;30001;983;1863;-66
2021/10/25 01:24:23;;;;;;;;;;;;;;;6.37;79.69;97430.44;30001;983;1872;-65
2021/10/25 01:24:54;;;;;;;;;;;;;;;6.39;79.96;97427.50;30001;983;1823;-67
2021/10/25 01:25:25;;;;;;;;;;;;;;;6.39;79.73;97428.31;30001;983;1881;-66
2021/10/25 01:25:56;;;;;;;;;;;;;;;6.40;79.80;97426.44;30001;982;1876;-66
2021/10/25 01:26:27;;;;;;;;;;;;;;;6.41;79.89;97419.97;30001;982;1881;-66
2021/10/25 01:26:57;;;;;;;;;;;;;;;6.43;79.82;97423.25;30001;982;1877;-66
2021/10/25 01:27:28;;;;;;;;;;;;;;;6.44;79.75;97421.34;30001;982;1881;-65
2021/10/25 01:28:00;;;;;;;;;;;;;;;6.45;79.55;97434.59;30001;982;1877;-66
2021/10/25 01:28:31;;;;;;;;;;;;;;;6.46;79.38;97425.44;30001;983;1880;-66
2021/10/25 01:29:02;;;;;;;;;;;;;;;6.46;79.42;97430.81;30001;983;1863;-66
2021/10/25 01:29:33;;;;;;;;;;;;;;;6.46;79.68;97425.44;30001;983;1871;-66
2021/10/25 01:30:05;;;;;;;;;;;;;;;6.47;79.45;97431.63;30001;983;1876;-66
2021/10/25 01:30:36;;;;;;;;;;;;;;;6.47;79.28;97432.44;30001;983;1880;-65
2021/10/25 01:31:07;;;;;;;;;;;;;;;6.47;79.42;97424.37;30001;983;1863;-65
2021/10/25 01:31:38;;;;;;;;;;;;;;;6.48;79.42;97434.09;30001;983;1872;-63
2021/10/25 01:32:09;;;;;;;;;;;;;;;6.48;79.32;97426.00;30001;983;1876;-66
2021/10/25 01:32:45;;;;;;;;;;;;;;;6.50;79.36;97425.75;30001;982;1881;-66
2021/10/25 01:33:15;;;;;;;;;;;;;;;6.50;79.32;97425.75;30001;982;1876;-57
2021/10/25 01:33:47;;;;;;;;;;;;;;;6.49;79.24;97419.53;30001;982;1881;-65
2021/10/25 01:34:18;;;;;;;;;;;;;;;6.49;79.16;97422.22;30001;982;1877;-62
2021/10/25 01:34:49;;;;;;;;;;;;;;;6.50;78.94;97418.47;30001;982;1881;-65
2021/10/25 01:35:20;;;;;;;;;;;;;;;6.51;79.10;97420.09;30001;982;1877;-66
2021/10/25 01:35:51;;;;;;;;;;;;;;;6.52;79.27;97429.81;30001;983;1867;-66
2021/10/25 01:36:22;;;;;;;;;;;;;;;6.52;78.98;97419.03;30001;983;1867;-66
2021/10/25 01:36:53;;;;;;;;;;;;;;;6.55;78.68;97423.91;30001;983;1880;-66
2021/10/25 01:37:24;;;;;;;;;;;;;;;6.55;78.73;97426.63;30001;983;1876;-65
2021/10/25 01:37:55;;;;;;;;;;;;;;;6.56;78.79;97425.53;30001;983;1867;-65
2021/10/25 01:38:26;;;;;;;;;;;;;;;6.55;78.65;97421.22;30001;983;1867;-66
2021/10/25 01:38:57;;;;;;;;;;;;;;;6.55;78.63;97418.53;30001;983;1880;-66
2021/10/25 01:39:28;;;;;;;;;;;;;;;6.55;78.83;97415.81;30001;983;1876;-67
2021/10/25 01:39:59;;;;;;;;;;;;;;;6.56;78.88;97420.16;30001;982;1881;-64
2021/10/25 01:40:30;;;;;;;;;;;;;;;6.55;78.64;97421.22;30001;982;1876;-57
2021/10/25 01:41:01;;;;;;;;;;;;;;;6.56;78.73;97422.84;30001;982;1881;-67
2021/10/25 01:41:32;;;;;;;;;;;;;;;6.58;78.37;97415.31;30001;982;1877;-65
2021/10/25 01:42:03;;;;;;;;;;;;;;;6.60;78.13;97421.25;30001;982;1881;-63
2021/10/25 01:42:35;;;;;;;;;;;;;;;6.59;78.11;97419.63;30001;982;1864;-66
2021/10/25 01:43:06;;;;;;;;;;;;;;;6.60;78.02;97421.25;30001;982;1872;-64
2021/10/25 01:43:38;;;;;;;;;;;;;;;6.59;77.87;97414.22;30001;983;1876;-63
2021/10/25 01:44:10;;;;;;;;;;;;;;;6.61;78.11;97416.66;30001;960;1903;-67
2021/10/25 01:44:41;;;;;;;;;;;;;;;6.61;77.82;97417.47;30001;983;1876;-65
2021/10/25 01:45:13;;;;;;;;;;;;;;;6.62;77.99;97413.72;30001;983;1880;-64
2021/10/25 01:45:47;;;;;;;;;;;;;;;6.62;77.90;97419.09;30001;983;1876;-64
2021/10/25 01:46:18;;;;;;;;;;;;;;;6.63;77.86;97419.94;30001;983;1867;-67
2021/10/25 01:46:49;;;;;;;;;;;;;;;6.61;77.56;97420.19;30001;983;1854;-66
2021/10/25 01:47:20;;;;;;;;;;;;;;;6.62;77.78;97413.72;30001;982;1881;-66
2021/10/25 01:47:51;;;;;;;;;;;;;;;6.63;77.84;97417.22;30001;982;1877;-66
2021/10/25 01:48:22;;;;;;;;;;;;;;;6.62;77.71;97405.62;30001;982;1881;-61
2021/10/25 01:48:53;;;;;;;;;;;;;;;6.64;77.68;97411.59;30001;982;1877;-65
2021/10/25 01:49:24;;;;;;;;;;;;;;;6.65;77.19;97410.50;30001;963;1900;-66
2021/10/25 01:49:55;;;;;;;;;;;;;;;6.65;77.21;97413.22;30001;982;1877;-64
2021/10/25 01:50:26;;;;;;;;;;;;;;;6.65;76.99;97413.22;30001;982;1881;-66
2021/10/25 01:50:57;;;;;;;;;;;;;;;6.65;77.04;97410.50;30001;983;1863;-69
2021/10/25 01:51:28;;;;;;;;;;;;;;;6.63;76.99;97409.94;30001;983;1871;-67
2021/10/25 01:52:00;;;;;;;;;;;;;;;6.63;77.28;97418.03;30001;983;1876;-66
2021/10/25 01:52:31;;;;;;;;;;;;;;;6.63;77.35;97414.53;30001;983;1880;-65
2021/10/25 01:53:04;;;;;;;;;;;;;;;6.62;77.50;97416.41;30001;983;1876;-65
2021/10/25 01:53:37;;;;;;;;;;;;;;;6.62;77.32;97418.28;30001;983;1880;-67
2021/10/25 01:54:08;;;;;;;;;;;;;;;6.61;77.21;97417.47;30001;983;1876;-68
2021/10/25 01:54:39;;;;;;;;;;;;;;;6.63;77.15;97420.75;30001;983;1881;-66
2021/10/25 01:55:10;;;;;;;;;;;;;;;6.60;76.93;97415.84;30001;982;1877;-65
2021/10/25 01:55:41;;;;;;;;;;;;;;;6.59;77.03;97411.53;30001;982;1881;-64
2021/10/25 01:56:13;;;;;;;;;;;;;;;6.58;77.13;97412.63;30001;982;1753;-67
2021/10/25 01:56:44;;;;;;;;;;;;;;;6.57;77.00;97413.69;30001;982;1872;-64
2021/10/25 01:57:15;;;;;;;;;;;;;;;6.55;77.24;97410.44;30001;982;1876;-66
2021/10/25 01:57:46;;;;;;;;;;;;;;;6.56;76.92;97414.75;30001;983;1880;-67
2021/10/25 01:58:17;;;;;;;;;;;;;;;6.56;77.11;97412.06;30001;983;1876;-67
2021/10/25 01:58:48;;;;;;;;;;;;;;;6.56;77.52;97414.75;30001;983;1867;-67
2021/10/25 01:59:19;;;;;;;;;;;;;;;6.56;77.16;97417.47;30001;983;1867;-65
2021/10/25 01:59:50;;;;;;;;;;;;;;;6.56;77.70;97412.06;30001;983;1880;-67
2021/10/25 02:00:21;;;;;;;;;;;;;;;6.56;77.62;97409.37;30001;983;1876;-66
2021/10/25 02:00:52;;;;;;;;;;;;;;;6.57;77.86;97408.31;30001;983;1880;-65
2021/10/25 02:01:24;;;;;;;;;;;;;;;6.57;77.59;97419.09;30001;983;1863;-64
2021/10/25 02:01:55;;;;;;;;;;;;;;;6.58;77.76;97414.50;30001;983;1872;-67
2021/10/25 02:02:25;;;;;;;;;;;;;;;6.57;77.78;97416.38;30001;982;1876;-65
2021/10/25 02:02:56;;;;;;;;;;;;;;;6.58;77.89;97407.22;30001;982;1868;-68
2021/10/25 02:03:27;;;;;;;;;;;;;;;6.58;77.57;97412.63;30001;982;1868;-66
2021/10/25 02:03:58;;;;;;;;;;;;;;;6.56;77.57;97414.75;30001;982;1881;-67
2021/10/25 02:04:30;;;;;;;;;;;;;;;6.55;77.38;97412.31;30001;982;1877;-68
2021/10/25 02:05:02;;;;;;;;;;;;;;;6.53;76.97;97409.87;30001;983;1880;-67
2021/10/25 02:05:34;;;;;;;;;;;;;;;6.52;77.41;97419.03;30001;983;1876;-67
2021/10/25 02:06:06;;;;;;;;;;;;;;;6.52;77.39;97408.25;30001;983;1880;-67
2021/10/25 02:06:37;;;;;;;;;;;;;;;6.52;77.55;97408.25;30001;983;1876;-67
2021/10/25 02:07:08;;;;;;;;;;;;;;;6.51;77.26;97406.62;30001;983;1867;-66
2021/10/25 02:07:39;;;;;;;;;;;;;;;6.49;77.40;97408.75;30001;983;1867;-66
2021/10/25 02:08:10;;;;;;;;;;;;;;;6.50;77.61;97405.00;30001;983;1880;-65
2021/10/25 02:08:41;;;;;;;;;;;;;;;6.50;77.46;97410.37;30001;983;1876;-67
2021/10/25 02:09:12;;;;;;;;;;;;;;;6.50;77.55;97405.00;30001;987;1864;-67
2021/10/25 02:09:43;;;;;;;;;;;;;;;6.50;77.87;97406.88;30001;983;1876;-67
2021/10/25 02:10:14;;;;;;;;;;;;;;;6.51;77.53;97408.50;30001;982;1881;-65
2021/10/25 02:10:45;;;;;;;;;;;;;;;6.50;77.66;97405.00;30001;982;1885;-66
2021/10/25 02:11:16;;;;;;;;;;;;;;;6.48;77.33;97403.63;30001;982;1881;-66
2021/10/25 02:11:47;;;;;;;;;;;;;;;6.46;77.48;97397.66;30001;982;1885;-66
2021/10/25 02:12:18;;;;;;;;;;;;;;;6.44;77.50;97405.19;30001;982;1881;-66
2021/10/25 02:12:53;;;;;;;;;;;;;;;6.43;77.81;97409.75;30001;983;1884;-67
2021/10/25 02:13:24;;;;;;;;;;;;;;;6.43;77.58;97409.75;30001;983;1867;-65
2021/10/25 02:13:54;;;;;;;;;;;;;;;6.41;77.42;97406.50;30001;983;1876;-63
2021/10/25 02:14:25;;;;;;;;;;;;;;;6.40;77.73;97404.88;30001;983;1790;-66
2021/10/25 02:14:56;;;;;;;;;;;;;;;6.39;77.50;97405.94;30001;983;1885;-67
2021/10/25 02:15:27;;;;;;;;;;;;;;;6.39;77.66;97405.94;30001;983;1867;-67
2021/10/25 02:15:58;;;;;;;;;;;;;;;6.40;77.43;97412.97;30001;983;1876;-69
2021/10/25 02:16:29;;;;;;;;;;;;;;;6.38;77.15;97407.00;30001;983;1880;-67
2021/10/25 02:17:00;;;;;;;;;;;;;;;6.36;77.55;97409.13;30001;983;1885;-67
2021/10/25 02:17:32;;;;;;;;;;;;;;;6.34;77.23;97405.88;30001;982;1881;-65
2021/10/25 02:18:02;;;;;;;;;;;;;;;6.34;77.52;97401.31;30001;982;1886;-68
2021/10/25 02:18:33;;;;;;;;;;;;;;;6.34;77.38;97405.88;30001;982;1881;-67
2021/10/25 02:19:04;;;;;;;;;;;;;;;6.33;77.28;97405.06;30001;982;1872;-69
2021/10/25 02:19:35;;;;;;;;;;;;;;;6.35;77.22;97407.50;30001;982;1872;-67
2021/10/25 02:20:06;;;;;;;;;;;;;;;6.35;77.19;97404.81;30001;983;1870;-68
2021/10/25 02:20:38;;;;;;;;;;;;;;;6.34;77.35;97406.69;30001;983;1871;-66
2021/10/25 02:21:12;;;;;;;;;;;;;;;6.33;77.33;97409.66;30001;983;1871;-65
2021/10/25 02:21:44;;;;;;;;;;;;;;;6.30;77.43;97405.56;30001;983;1872;-67
2021/10/25 02:22:15;;;;;;;;;;;;;;;6.30;77.41;97404.75;30001;983;1885;-67
2021/10/25 02:22:45;;;;;;;;;;;;;;;6.29;77.68;97403.94;30001;983;1881;-66
2021/10/25 02:23:16;;;;;;;;;;;;;;;6.27;77.82;97402.56;30001;983;1885;-67
2021/10/25 02:23:47;;;;;;;;;;;;;;;6.27;77.61;97402.56;30001;983;1867;-68
2021/10/25 02:24:18;;;;;;;;;;;;;;;6.27;77.57;97405.25;30001;983;1876;-66
2021/10/25 02:24:49;;;;;;;;;;;;;;;6.23;77.97;97398.78;30001;986;1881;-65
2021/10/25 02:25:19;;;;;;;;;;;;;;;6.24;78.06;97400.38;30001;982;1885;-67
2021/10/25 02:25:51;;;;;;;;;;;;;;;6.22;77.76;97397.97;30001;982;1881;-68
2021/10/25 02:26:22;;;;;;;;;;;;;;;6.22;77.83;97397.16;30001;982;1885;-62
2021/10/25 02:26:53;;;;;;;;;;;;;;;6.21;77.94;97400.91;30001;982;1868;-67
2021/10/25 02:27:24;;;;;;;;;;;;;;;6.20;77.86;97400.09;30001;982;1876;-67
2021/10/25 02:27:55;;;;;;;;;;;;;;;6.20;77.57;97393.87;30001;983;1880;-64
2021/10/25 02:28:25;;;;;;;;;;;;;;;6.19;77.84;97394.94;30001;983;1885;-67
2021/10/25 02:28:56;;;;;;;;;;;;;;;6.19;77.67;97394.94;30001;983;1880;-67
2021/10/25 02:29:27;;;;;;;;;;;;;;;6.17;77.87;97395.19;30001;983;1885;-65
2021/10/25 02:29:58;;;;;;;;;;;;;;;6.18;77.53;97396.00;30001;983;1880;-65
2021/10/25 02:30:29;;;;;;;;;;;;;;;6.18;77.63;97398.72;30001;983;1885;-68
2021/10/25 02:31:00;;;;;;;;;;;;;;;6.17;77.36;97391.69;30001;983;1881;-67
2021/10/25 02:31:31;;;;;;;;;;;;;;;6.15;77.62;97391.94;30001;983;1872;-66
2021/10/25 02:32:03;;;;;;;;;;;;;;;6.15;77.58;97385.75;30001;982;1872;-65
2021/10/25 02:32:33;;;;;;;;;;;;;;;6.15;77.85;97385.75;30001;982;1885;-67
2021/10/25 02:33:04;;;;;;;;;;;;;;;6.13;77.35;97394.06;30001;982;1881;-66
2021/10/25 02:33:35;;;;;;;;;;;;;;;6.13;77.69;97388.69;30001;982;1885;-66
2021/10/25 02:34:06;;;;;;;;;;;;;;;6.13;77.61;97390.56;30001;982;1881;-69
2021/10/25 02:34:37;;;;;;;;;;;;;;;6.14;77.68;97392.19;30001;982;1872;-66
2021/10/25 02:35:08;;;;;;;;;;;;;;;6.12;77.78;97392.44;30001;982;1872;-67
2021/10/25 02:35:39;;;;;;;;;;;;;;;6.12;78.00;97388.94;30001;983;1884;-67
2021/10/25 02:36:10;;;;;;;;;;;;;;;6.11;77.75;97390.00;30001;983;1880;-65
2021/10/25 02:36:40;;;;;;;;;;;;;;;6.08;78.16;97395.88;30001;983;1885;-64
2021/10/25 02:37:12;;;;;;;;;;;;;;;6.09;78.06;97394.81;30001;983;1880;-67
2021/10/25 02:37:43;;;;;;;;;;;;;;;6.08;78.01;97393.19;30001;983;1885;-66
2021/10/25 02:38:14;;;;;;;;;;;;;;;6.09;77.79;97386.75;30001;983;1880;-62
2021/10/25 02:38:45;;;;;;;;;;;;;;;6.09;77.67;97386.75;30001;983;1885;-67
2021/10/25 02:39:15;;;;;;;;;;;;;;;6.08;77.86;97385.13;30001;983;1880;-65
2021/10/25 02:39:46;;;;;;;;;;;;;;;6.07;77.65;97383.50;30001;982;1872;-65
2021/10/25 02:40:17;;;;;;;;;;;;;;;6.08;77.49;97385.13;30001;982;1872;-65
2021/10/25 02:40:48;;;;;;;;;;;;;;;6.08;77.38;97388.63;30001;982;1885;-66
2021/10/25 02:41:19;;;;;;;;;;;;;;;6.08;77.33;97379.72;30001;982;1881;-68
2021/10/25 02:41:50;;;;;;;;;;;;;;;6.07;77.50;97378.09;30001;982;1885;-66
2021/10/25 02:42:21;;;;;;;;;;;;;;;6.05;77.63;97381.84;30001;982;1868;-65
2021/10/25 02:42:52;;;;;;;;;;;;;;;6.04;77.78;97380.22;30001;983;1876;-67
2021/10/25 02:43:26;;;;;;;;;;;;;;;6.03;77.68;97378.59;30001;983;1880;-67
2021/10/25 02:43:57;;;;;;;;;;;;;;;6.03;77.55;97378.59;30001;983;1872;-66
2021/10/25 02:44:27;;;;;;;;;;;;;;;6.03;77.55;97375.91;30001;983;1872;-67
2021/10/25 02:44:58;;;;;;;;;;;;;;;6.01;77.83;97375.34;30001;983;1872;-68
2021/10/25 02:45:30;;;;;;;;;;;;;;;6.01;77.60;97380.72;30001;983;1872;-66
2021/10/25 02:46:01;;;;;;;;;;;;;;;6.00;77.63;97376.41;30001;983;1885;-66
2021/10/25 02:46:32;;;;;;;;;;;;;;;5.98;77.81;97378.53;30001;983;1881;-66
2021/10/25 02:47:03;;;;;;;;;;;;;;;5.98;77.73;97375.03;30001;982;1885;-62
2021/10/25 02:47:34;;;;;;;;;;;;;;;5.98;78.01;97381.22;30001;982;1867;-65
2021/10/25 02:48:05;;;;;;;;;;;;;;;5.97;77.94;97373.41;30001;982;1877;-68
2021/10/25 02:48:37;;;;;;;;;;;;;;;5.98;77.85;97381.22;30001;982;1881;-67